KBVE

Boothville Airport

Boothville, Louisiana, USA
METAR KBVE 180825Z AUTO 00000KT 1/2SM FG SCT002 BKN025 OVC034 19/19 A3014 RMK AO2 T01940189
Observed Flight Rules
Dec-18 @ 08:25 UTC (28 minutes ago) Instrument Flight Rules
Wind Visibility Clouds Conditions
Calm 1/2 miles
  • Scattered at 200' AGL
  • Broken at 2,500' AGL
  • Overcast at 3,400' AGL
  • Fog
Temperatures Readings
Current 19°C / 66°F
Dewpoint 19°C / 66°F
Humidity 100%
Altimeter 30.14" Hg
Pressure 1021 hPa
Elevation 1
METAR KBVE 180825Z AUTO 00000KT 1/2SM FG SCT002 BKN025 OVC034 19/19 A3014 RMK AO2 T01940189
Observed Flight Rules
Dec-18 @ 08:25 UTC
(28 minutes ago)
LIFR
Wind Visibility
Calm 1/2 miles
Clouds
  • Scattered at 200' AGL
  • Broken at 2,500' AGL
  • Overcast at 3,400' AGL
Conditions
  • Fog
Temperature Dewpoint
19°C / 66°F 19°C / 66°F
Humidity Altimeter Pressure
100% 30.14" Hg 1021 hPa